Time;durP1;ratioP1;P1;durP2;ratioP2;P2;SDS_P1;SDS_P2;PMS_P1;PMS_P2;Temp;Humidity;BMP_temperature;BMP_pressure;BME280_temperature;BME280_humidity;BME280_pressure;Samples;Min_cycle;Max_cycle;Signal;HPM_P1;HPM_P2
2022/01/16 00:04:07;;;;;;;37.80;17.33;;;;;;;0.71;88.21;102327.66;5066141;28;20064;-86
2022/01/16 00:06:36;;;;;;;37.07;16.50;;;;;;;0.71;87.93;102326.78;5065761;28;20485;-87
2022/01/16 00:09:03;;;;;;;39.20;18.23;;;;;;;0.71;88.16;102319.09;5063975;28;20025;-85
2022/01/16 00:11:28;;;;;;;35.13;17.00;;;;;;;0.73;88.28;102323.47;5065137;28;20034;-86
2022/01/16 00:13:54;;;;;;;42.90;17.10;;;;;;;0.74;88.23;102321.78;5064869;28;20021;-87
2022/01/16 00:16:19;;;;;;;40.10;17.30;;;;;;;0.73;88.18;102318.34;5093193;22;20036;-88
2022/01/16 00:18:54;;;;;;;40.40;17.67;;;;;;;0.72;88.04;102331.97;5082033;28;20040;-87
2022/01/16 00:21:22;;;;;;;41.33;17.73;;;;;;;0.71;88.21;102319.97;5071818;28;20050;-88
2022/01/16 00:23:49;;;;;;;39.30;17.00;;;;;;;0.71;88.03;102324.22;5067580;28;20388;-87
2022/01/16 00:26:14;;;;;;;35.77;15.73;;;;;;;0.72;87.94;102331.97;5066861;28;20032;-87
2022/01/16 00:28:40;;;;;;;38.33;17.57;;;;;;;0.69;87.88;102326.72;5082275;28;20089;-88
2022/01/16 00:31:05;;;;;;;38.20;17.27;;;;;;;0.68;88.05;102319.88;5068650;28;20077;-88
2022/01/16 00:33:31;;;;;;;41.17;17.60;;;;;;;0.69;87.69;102313.91;5083020;28;20027;-88
2022/01/16 00:35:56;;;;;;;37.93;17.07;;;;;;;0.66;87.69;102329.19;5078836;28;20111;-88
2022/01/16 00:38:21;;;;;;;39.47;17.17;;;;;;;0.67;87.71;102333.47;5088808;28;20028;-88
2022/01/16 00:40:47;;;;;;;40.33;16.63;;;;;;;0.64;87.72;102327.34;5084632;28;20434;-87
2022/01/16 00:43:13;;;;;;;42.07;18.03;;;;;;;0.59;88.02;102322.94;5090958;28;20021;-87
2022/01/16 00:45:39;;;;;;;43.87;17.70;;;;;;;0.57;88.11;102313.44;5076302;28;20032;-87
2022/01/16 00:48:05;;;;;;;37.50;17.93;;;;;;;0.54;88.30;102310.75;5094376;28;20115;-88
2022/01/16 00:50:33;;;;;;;44.87;17.17;;;;;;;0.53;88.05;102306.44;5071740;28;20074;-88
2022/01/16 00:52:59;;;;;;;42.37;17.23;;;;;;;0.51;88.05;102318.31;5083924;28;20033;-88
2022/01/16 00:55:24;;;;;;;40.77;16.57;;;;;;;0.52;88.35;102322.59;5084103;28;20038;-88
2022/01/16 00:57:50;;;;;;;37.57;16.53;;;;;;;0.54;88.17;102300.50;5091896;28;20024;-88
2022/01/16 01:00:16;;;;;;;41.57;18.03;;;;;;;0.56;88.45;102284.41;5086621;28;20540;-87
2022/01/16 01:02:41;;;;;;;37.80;17.20;;;;;;;0.56;88.30;102271.59;5085326;28;20032;-88
2022/01/16 01:05:08;;;;;;;42.40;17.67;;;;;;;0.57;88.77;102282.69;5091953;28;20027;-87
2022/01/16 01:07:34;;;;;;;37.80;17.07;;;;;;;0.56;88.52;102286.06;5069360;28;20055;-87
2022/01/16 01:09:59;;;;;;;41.87;17.23;;;;;;;0.56;88.14;102279.28;5090892;28;20028;-87
2022/01/16 01:12:29;;;;;;;41.63;17.27;;;;;;;0.59;88.80;102299.00;5088255;28;20025;-88
2022/01/16 01:15:09;;;;;;;38.67;17.17;;;;;;;0.58;88.61;102287.00;5059455;28;20027;-88
2022/01/16 01:17:46;;;;;;;40.47;16.97;;;;;;;0.59;88.68;102278.50;5080773;28;20046;-88
2022/01/16 01:20:15;;;;;;;44.30;17.40;;;;;;;0.60;88.64;102275.13;5076101;28;20033;-88
2022/01/16 01:22:41;;;;;;;39.73;16.57;;;;;;;0.63;88.91;102294.88;5072036;28;20036;-87
2022/01/16 01:25:08;;;;;;;50.07;18.63;;;;;;;0.65;88.95;102273.63;5083419;28;20055;-87
2022/01/16 01:27:34;;;;;;;43.57;18.53;;;;;;;0.66;88.58;102290.75;5073217;28;20028;-87
2022/01/16 01:30:06;;;;;;;46.73;18.13;;;;;;;0.68;88.33;102301.94;5088547;28;20034;-87
2022/01/16 01:32:33;;;;;;;44.37;17.93;;;;;;;0.69;88.55;102280.59;5088290;28;20028;-87
2022/01/16 01:34:59;;;;;;;41.27;17.47;;;;;;;0.70;88.69;102272.09;5070411;28;20264;-87
2022/01/16 01:37:25;;;;;;;49.67;18.43;;;;;;;0.68;88.53;102230.22;5091692;28;20032;-87
2022/01/16 01:39:50;;;;;;;52.50;19.37;;;;;;;0.69;88.57;102200.34;5093468;28;20082;-88
2022/01/16 01:42:16;;;;;;;50.43;19.27;;;;;;;0.69;88.69;102198.63;5069635;28;20032;-89
2022/01/16 01:53:01;;;;;;;45.73;18.13;;;;;;;0.71;88.95;102243.13;5084765;28;20035;-87
2022/01/16 01:55:27;;;;;;;53.03;19.43;;;;;;;0.72;89.07;102247.44;5077044;28;20401;-88
2022/01/16 01:57:53;;;;;;;47.30;19.60;;;;;;;0.74;89.08;102261.16;5092986;28;20059;-88
2022/01/16 02:00:19;;;;;;;50.00;19.60;;;;;;;0.77;88.80;102267.22;5088028;28;20453;-88
2022/01/16 02:05:35;;;;;;;52.17;18.83;;;;;;;0.80;88.98;102282.72;5082150;28;20114;-87
2022/01/16 02:08:02;;;;;;;51.90;19.50;;;;;;;0.81;88.88;102289.59;5088863;28;20045;-87
2022/01/16 02:10:28;;;;;;;64.20;20.87;;;;;;;0.81;88.72;102289.59;5090548;28;20426;-87
2022/01/16 02:13:01;;;;;;;50.43;20.23;;;;;;;0.79;88.80;102279.25;5084072;28;20203;-87
2022/01/16 02:34:47;;;;;;;54.17;20.60;;;;;;;0.81;89.11;102299.84;5038061;28;20548;-87
2022/01/16 02:37:15;;;;;;;59.47;21.37;;;;;;;0.80;89.34;102308.34;5084527;28;20023;-87
2022/01/16 02:39:45;;;;;;;61.77;21.60;;;;;;;0.79;89.25;102311.72;5071277;28;20429;-87
2022/01/16 02:42:12;;;;;;;64.20;22.03;;;;;;;0.80;89.07;102308.34;5067560;28;20115;-87
2022/01/16 02:44:49;;;;;;;57.27;23.07;;;;;;;0.79;89.18;102304.88;5086547;28;20087;-87
2022/01/16 02:47:19;;;;;;;55.13;21.37;;;;;;;0.81;89.05;102302.41;5068286;28;20085;-87
2022/01/16 02:49:48;;;;;;;66.27;22.57;;;;;;;0.80;89.34;102291.25;5088388;28;20032;-87
2022/01/16 02:52:16;;;;;;;59.97;23.10;;;;;;;0.78;89.30;102280.09;5090195;28;20024;-87
2022/01/16 02:54:43;;;;;;;67.47;22.30;;;;;;;0.79;89.41;102280.97;5085272;28;20463;-87
2022/01/16 02:57:11;;;;;;;55.90;21.80;;;;;;;0.79;89.38;102278.41;5071433;28;20468;-87
2022/01/16 02:59:38;;;;;;;69.83;23.30;;;;;;;0.79;88.97;102261.34;5087303;28;20024;-87
2022/01/16 03:02:05;;;;;;;57.47;22.73;;;;;;;0.77;89.32;102256.97;5087435;28;21393;-88
2022/01/16 03:04:31;;;;;;;61.27;22.20;;;;;;;0.78;89.45;102251.03;5065760;28;20024;-87
2022/01/16 03:07:02;;;;;;;51.10;21.77;;;;;;;0.78;89.33;102253.59;5086186;28;20024;-87
2022/01/16 03:09:47;;;;;;;61.47;22.58;;;;;;;0.77;89.03;102246.72;5085988;28;20036;-87
2022/01/16 03:12:13;;;;;;;55.40;21.27;;;;;;;0.76;89.26;102251.00;5088790;28;20107;-87
2022/01/16 03:14:38;;;;;;;66.60;22.03;;;;;;;0.73;88.99;102236.38;5059056;28;20119;-87
2022/01/16 03:17:04;;;;;;;54.93;22.07;;;;;;;0.72;89.05;102247.44;5064923;28;20048;-87
2022/01/16 03:22:13;;;;;;;52.47;20.90;;;;;;;0.69;88.99;102249.88;5089997;28;20545;-87
2022/01/16 03:24:44;;;;;;;63.30;21.17;;;;;;;0.69;89.17;102236.19;5078828;28;20055;-87
2022/01/16 03:27:14;;;;;;;51.22;20.42;;;;;;;0.68;89.25;102240.47;5084008;28;20024;-87
2022/01/16 03:29:41;;;;;;;53.97;20.93;;;;;;;0.65;88.80;102236.88;5086523;28;20028;-87
2022/01/16 03:32:10;;;;;;;66.10;21.30;;;;;;;0.61;88.95;102230.78;5088102;28;20035;-86
2022/01/16 03:34:36;;;;;;;52.53;20.93;;;;;;;0.57;88.89;102221.25;5090142;28;20112;-87
2022/01/16 03:37:02;;;;;;;66.17;20.83;;;;;;;0.54;88.74;102219.44;5093715;28;20028;-87
2022/01/16 03:39:27;;;;;;;65.33;20.27;;;;;;;0.53;88.52;102227.06;5075498;28;20054;-88
2022/01/16 03:41:55;;;;;;;68.10;21.87;;;;;;;0.51;88.56;102219.31;5064498;28;20028;-87
2022/01/16 03:44:20;;;;;;;55.83;20.27;;;;;;;0.50;88.52;102221.84;5088181;28;20081;-87
2022/01/16 03:46:46;;;;;;;57.13;21.13;;;;;;;0.48;88.80;102218.34;5088754;28;20419;-87
2022/01/16 03:49:15;;;;;;;60.03;20.43;;;;;;;0.45;88.99;102224.19;5091150;28;20020;-87
2022/01/16 03:51:41;;;;;;;61.03;21.77;;;;;;;0.42;88.90;102224.97;5065300;28;20032;-87
2022/01/16 03:54:10;;;;;;;56.33;21.50;;;;;;;0.41;88.76;102223.22;5088916;28;20036;-87
2022/01/16 03:56:35;;;;;;;54.93;21.23;;;;;;;0.42;89.08;102224.97;5088858;28;20032;-87
2022/01/16 03:59:01;;;;;;;62.40;21.20;;;;;;;0.42;88.63;102224.97;5081447;28;20136;-86
2022/01/16 04:01:27;;;;;;;56.00;22.13;;;;;;;0.40;88.90;102226.59;5085242;28;20034;-87
2022/01/16 04:03:54;;;;;;;61.40;21.90;;;;;;;0.37;88.55;102218.78;5088012;28;20020;-87
2022/01/16 04:06:20;;;;;;;57.93;21.13;;;;;;;0.39;88.83;102232.53;5090294;28;20024;-87
2022/01/16 04:08:54;;;;;;;56.93;21.53;;;;;;;0.39;89.33;102239.34;5088740;28;20024;-87
2022/01/16 04:11:23;;;;;;;63.97;23.23;;;;;;;0.39;88.76;102239.34;5090654;28;20028;-87
2022/01/16 04:13:53;;;;;;;61.13;22.00;;;;;;;0.41;88.66;102232.59;5087931;28;20538;-87
2022/01/16 04:16:22;;;;;;;61.77;22.57;;;;;;;0.42;89.01;102235.22;5090823;28;20352;-87
2022/01/16 04:18:51;;;;;;;61.57;23.10;;;;;;;0.43;88.98;102223.25;5090059;28;20028;-87
2022/01/16 04:21:18;;;;;;;64.10;23.00;;;;;;;0.45;88.88;102230.22;5093250;28;20046;-87
2022/01/16 04:23:44;;;;;;;65.20;22.93;;;;;;;0.48;88.99;102226.03;5088350;28;20024;-87
2022/01/16 04:26:09;;;;;;;59.37;23.77;;;;;;;0.51;89.16;102213.34;5092591;28;20046;-87
2022/01/16 04:28:34;;;;;;;59.87;22.87;;;;;;;0.51;89.07;102211.63;5092344;28;20040;-87
2022/01/16 04:31:01;;;;;;;62.50;23.17;;;;;;;0.52;89.09;102213.38;5083765;28;20047;-87
2022/01/16 04:33:26;;;;;;;62.17;23.43;;;;;;;0.53;88.80;102211.69;5092818;28;20446;-87
2022/01/16 04:35:51;;;;;;;62.80;22.80;;;;;;;0.53;89.01;102216.81;5093038;28;20107;-87
2022/01/16 04:38:16;;;;;;;57.13;23.73;;;;;;;0.52;89.22;102215.06;5090466;28;20066;-87
2022/01/16 04:43:47;;;;;;;59.00;22.73;;;;;;;0.51;88.99;102215.91;5086676;28;20036;-87
2022/01/16 04:46:11;;;;;;;61.27;23.97;;;;;;;0.52;88.96;102220.19;5082986;28;20043;-87
2022/01/16 04:48:36;;;;;;;57.03;23.43;;;;;;;0.53;89.09;102214.25;5075616;28;20028;-88
2022/01/16 04:51:01;;;;;;;62.07;22.87;;;;;;;0.53;89.38;102211.69;5090739;28;20055;-87
2022/01/16 04:53:27;;;;;;;56.00;22.97;;;;;;;0.54;89.28;102221.13;5093775;28;20024;-88
2022/01/16 04:55:52;;;;;;;58.10;24.17;;;;;;;0.53;89.41;102209.13;5091938;28;20540;-87
2022/01/16 04:58:19;;;;;;;60.43;24.20;;;;;;;0.52;89.10;102218.50;5093354;28;20028;-88
2022/01/16 05:00:44;;;;;;;58.93;23.70;;;;;;;0.52;88.99;102207.38;5084507;28;20472;-87
2022/01/16 05:03:10;;;;;;;56.60;24.23;;;;;;;0.51;88.85;102205.66;5093002;28;20030;-88
2022/01/16 05:05:35;;;;;;;59.63;23.77;;;;;;;0.51;89.48;102208.22;5092505;28;20050;-88
2022/01/16 05:08:00;;;;;;;56.43;22.83;;;;;;;0.51;89.17;102205.66;5085035;28;20040;-88
2022/01/16 05:10:27;;;;;;;59.07;23.57;;;;;;;0.52;89.15;102199.69;5088266;28;21258;-88
2022/01/16 05:12:53;;;;;;;57.20;24.27;;;;;;;0.52;89.44;102197.13;5072026;28;20026;-87
2022/01/16 05:18:02;;;;;;;56.03;22.87;;;;;;;0.53;89.71;102196.31;5048975;28;1252450;-87
2022/01/16 05:20:27;;;;;;;55.20;24.30;;;;;;;0.52;89.40;102195.47;5087768;28;20029;-88
2022/01/16 05:22:53;;;;;;;54.07;23.50;;;;;;;0.53;89.18;102197.22;5081700;28;20145;-88
2022/01/16 05:25:18;;;;;;;50.93;22.87;;;;;;;0.55;89.51;102199.81;5092176;28;20043;-87
2022/01/16 05:27:44;;;;;;;51.83;23.73;;;;;;;0.57;89.14;102196.53;5094020;28;20031;-87
2022/01/16 05:30:09;;;;;;;54.93;24.83;;;;;;;0.57;89.72;102193.97;5085863;28;20107;-88
2022/01/16 05:32:35;;;;;;;52.53;22.80;;;;;;;0.57;89.79;102186.28;5085780;28;20028;-88
2022/01/16 05:35:00;;;;;;;55.27;24.33;;;;;;;0.59;89.67;102199.13;5093446;28;20028;-87
2022/01/16 05:37:26;;;;;;;54.93;24.67;;;;;;;0.61;89.73;102194.94;5090431;28;20031;-88
2022/01/16 05:39:51;;;;;;;53.73;24.50;;;;;;;0.59;89.79;102192.34;5088672;28;20024;-87
2022/01/16 05:42:16;;;;;;;54.40;25.20;;;;;;;0.61;89.61;102192.38;5085837;28;20035;-87
2022/01/16 05:44:42;;;;;;;55.27;24.80;;;;;;;0.62;89.64;102188.09;5092039;28;20385;-87
2022/01/16 05:47:10;;;;;;;51.77;24.63;;;;;;;0.65;89.77;102195.91;5090223;28;20073;-87
2022/01/16 05:49:35;;;;;;;52.93;25.27;;;;;;;0.66;89.83;102197.66;5074566;28;20027;-87
2022/01/16 05:52:00;;;;;;;48.60;23.83;;;;;;;0.68;89.39;102208.84;5088314;28;20030;-87
2022/01/16 05:54:26;;;;;;;55.37;25.50;;;;;;;0.68;90.04;102209.72;5091053;28;20054;-87
2022/01/16 05:56:51;;;;;;;54.03;25.27;;;;;;;0.70;90.14;102209.78;5077555;28;20091;-87
2022/01/16 05:59:16;;;;;;;56.20;26.17;;;;;;;0.71;89.72;102207.25;5113612;28;20027;-88
2022/01/16 06:01:42;;;;;;;57.03;26.20;;;;;;;0.73;89.79;102199.66;5086830;28;20016;-87
2022/01/16 06:04:07;;;;;;;54.23;25.93;;;;;;;0.75;89.94;102203.13;5092825;28;20020;-87
2022/01/16 06:06:33;;;;;;;54.83;25.67;;;;;;;0.79;90.26;102193.88;5072783;28;20019;-87
2022/01/16 06:08:58;;;;;;;51.37;25.40;;;;;;;0.80;90.12;102185.38;5090487;28;20012;-86
2022/01/16 06:11:23;;;;;;;56.13;26.07;;;;;;;0.83;90.21;102193.16;5085617;28;20467;-87
2022/01/16 06:13:49;;;;;;;54.10;26.33;;;;;;;0.86;89.91;102188.13;5088843;28;20031;-87
2022/01/16 06:16:14;;;;;;;55.10;26.50;;;;;;;0.89;90.10;102195.94;5074602;28;20535;-86
2022/01/16 06:18:39;;;;;;;54.33;26.80;;;;;;;0.90;89.93;102201.13;5087077;28;20044;-86
2022/01/16 06:21:05;;;;;;;58.50;26.07;;;;;;;0.93;90.14;102191.81;5087593;28;20036;-86
2022/01/16 06:23:30;;;;;;;60.13;26.83;;;;;;;0.94;90.19;102197.00;5092974;28;20069;-87
2022/01/16 06:25:55;;;;;;;62.50;28.27;;;;;;;0.96;90.28;102197.91;5089495;28;20039;-87
2022/01/16 06:28:22;;;;;;;63.67;27.80;;;;;;;0.99;90.20;102200.59;5092040;28;20481;-87
2022/01/16 06:30:48;;;;;;;56.47;26.53;;;;;;;1.02;90.43;102202.38;5090567;28;20534;-87
2022/01/16 06:33:13;;;;;;;53.27;26.67;;;;;;;1.03;90.34;102212.69;5085138;28;20024;-87
2022/01/16 06:35:39;;;;;;;54.53;26.40;;;;;;;1.05;90.17;102208.47;5087283;28;20020;-86
2022/01/16 06:38:04;;;;;;;57.33;27.33;;;;;;;1.08;90.22;102211.97;5071106;28;20042;-87
2022/01/16 06:40:30;;;;;;;54.70;27.10;;;;;;;1.10;90.41;102226.63;5083695;28;20099;-87
2022/01/16 06:42:55;;;;;;;58.53;27.13;;;;;;;1.13;90.49;102229.25;5081024;28;20023;-86
2022/01/16 06:45:21;;;;;;;59.20;27.80;;;;;;;1.15;90.13;102226.78;5089416;28;20084;-87
2022/01/16 06:47:46;;;;;;;57.50;27.93;;;;;;;1.17;91.02;102228.56;5092458;28;20110;-87
2022/01/16 06:50:12;;;;;;;56.57;27.63;;;;;;;1.19;90.46;102229.50;5089628;28;20390;-86
2022/01/16 06:52:37;;;;;;;58.67;28.07;;;;;;;1.21;90.55;102226.97;5089908;28;20180;-87
2022/01/16 06:55:03;;;;;;;60.80;28.17;;;;;;;1.25;90.47;102231.38;5089151;28;20031;-86
2022/01/16 06:57:29;;;;;;;58.10;27.60;;;;;;;1.26;90.58;102233.13;5088591;28;20419;-87
2022/01/16 06:59:54;;;;;;;64.07;28.77;;;;;;;1.30;90.42;102240.13;5088167;28;20067;-87
2022/01/16 07:02:19;;;;;;;62.77;28.93;;;;;;;1.31;90.55;102244.44;5068038;28;20115;-87
2022/01/16 07:04:45;;;;;;;60.27;27.00;;;;;;;1.35;90.75;102235.16;5085504;28;20019;-87
2022/01/16 07:07:11;;;;;;;60.97;28.80;;;;;;;1.35;90.43;102233.47;5087993;28;20051;-87
2022/01/16 07:09:39;;;;;;;60.43;28.30;;;;;;;1.38;90.62;102242.06;5092434;28;20032;-87
2022/01/16 07:12:05;;;;;;;59.27;28.27;;;;;;;1.41;90.61;102249.88;5091009;28;20035;-86
2022/01/16 07:14:30;;;;;;;56.97;27.10;;;;;;;1.42;90.59;102244.81;5081115;28;20028;-87
2022/01/16 07:16:56;;;;;;;62.37;26.70;;;;;;;1.46;90.46;102253.47;5087058;28;20058;-87
2022/01/16 07:19:21;;;;;;;57.87;26.80;;;;;;;1.50;90.33;102263.03;5070250;28;20023;-87
2022/01/16 07:21:46;;;;;;;60.90;28.73;;;;;;;1.51;90.67;102264.78;5089838;28;20020;-87
2022/01/16 07:24:15;;;;;;;56.97;27.13;;;;;;;1.55;90.34;102271.75;5067391;28;20099;-86
2022/01/16 07:26:44;;;;;;;60.47;27.13;;;;;;;1.58;90.31;102276.97;5084578;28;20024;-87
2022/01/16 07:29:09;;;;;;;56.80;25.97;;;;;;;1.60;90.21;102280.47;5084310;28;20028;-87
2022/01/16 07:31:38;;;;;;;56.37;26.47;;;;;;;1.61;90.09;102282.22;5089993;28;20115;-87
2022/01/16 07:34:04;;;;;;;58.77;26.87;;;;;;;1.62;90.26;102283.97;5083083;28;20356;-86
2022/01/16 07:36:29;;;;;;;54.90;25.37;;;;;;;1.65;90.31;102289.22;5086954;28;20027;-86
2022/01/16 07:38:54;;;;;;;55.07;27.43;;;;;;;1.67;90.04;102310.66;5088444;28;20035;-87
2022/01/16 07:41:19;;;;;;;54.47;26.00;;;;;;;1.69;90.16;102304.72;5087980;28;20158;-86
2022/01/16 07:43:45;;;;;;;62.47;26.87;;;;;;;1.73;90.18;102291.16;5078611;28;20025;-86
2022/01/16 07:46:10;;;;;;;59.17;25.87;;;;;;;1.74;90.07;102298.03;5085681;28;20023;-86
2022/01/16 07:48:35;;;;;;;57.17;26.03;;;;;;;1.76;89.95;102302.41;5086044;28;20024;-87
2022/01/16 07:51:01;;;;;;;58.77;25.70;;;;;;;1.75;89.78;102303.22;5089914;28;20028;-87
2022/01/16 07:53:26;;;;;;;56.63;25.57;;;;;;;1.77;90.09;102313.53;5080621;28;20028;-87
2022/01/16 07:55:51;;;;;;;53.90;25.23;;;;;;;1.80;89.76;102314.50;5080958;28;20020;-87
2022/01/16 07:58:16;;;;;;;58.40;25.17;;;;;;;1.81;89.92;102320.53;5087300;28;20107;-87
2022/01/16 08:00:42;;;;;;;51.43;25.10;;;;;;;1.82;89.80;102327.41;5087770;28;20027;-87
2022/01/16 08:03:07;;;;;;;53.67;24.83;;;;;;;1.83;89.89;102324.03;5087644;28;20090;-87
2022/01/16 08:05:34;;;;;;;58.20;25.97;;;;;;;1.86;89.91;102333.50;5087013;28;20034;-87
2022/01/16 08:07:59;;;;;;;57.77;25.43;;;;;;;1.87;89.95;102335.25;5091068;28;20034;-87
2022/01/16 08:10:25;;;;;;;58.30;26.07;;;;;;;1.88;89.85;102327.59;5090494;28;20474;-87
2022/01/16 08:12:50;;;;;;;53.50;24.80;;;;;;;1.90;90.02;102327.66;5083705;28;20024;-87
2022/01/16 08:15:16;;;;;;;53.80;25.57;;;;;;;1.93;89.66;102320.09;5082636;28;20375;-87
2022/01/16 08:17:41;;;;;;;50.73;24.97;;;;;;;1.94;89.81;102316.69;5090721;28;20049;-87
2022/01/16 08:20:10;;;;;;;55.77;24.40;;;;;;;1.97;89.86;102325.38;5091459;28;20036;-87
2022/01/16 08:22:36;;;;;;;57.87;23.47;;;;;;;1.99;89.71;102311.72;5085133;28;20038;-88
2022/01/16 08:25:04;;;;;;;52.67;24.57;;;;;;;2.01;89.93;102317.78;5086435;28;20068;-87
2022/01/16 08:27:29;;;;;;;47.30;23.77;;;;;;;2.03;90.12;102311.00;5082372;28;20020;-87
2022/01/16 08:29:55;;;;;;;50.23;23.40;;;;;;;2.05;89.83;102304.22;5087025;28;20085;-87
2022/01/16 08:32:21;;;;;;;51.90;24.70;;;;;;;2.06;89.63;102317.09;5090537;28;20035;-86
2022/01/16 08:34:46;;;;;;;55.20;24.63;;;;;;;2.09;89.93;102313.75;5087351;28;20029;-87
2022/01/16 08:37:11;;;;;;;52.23;24.60;;;;;;;2.10;89.86;102313.81;5087574;28;20398;-87
2022/01/16 08:39:37;;;;;;;58.77;23.57;;;;;;;2.14;90.01;102314.78;5090368;28;20055;-86
2022/01/16 08:42:02;;;;;;;47.87;24.27;;;;;;;2.15;89.87;102311.41;5090245;28;20077;-87
2022/01/16 08:44:27;;;;;;;51.47;23.97;;;;;;;2.18;90.06;102316.63;5072184;28;20024;-87
2022/01/16 08:46:53;;;;;;;53.63;23.60;;;;;;;2.19;89.85;102313.25;5090324;28;20490;-88
2022/01/16 08:49:18;;;;;;;52.30;23.07;;;;;;;2.21;90.10;102321.88;5085603;28;20513;-87
2022/01/16 08:51:43;;;;;;;56.57;24.33;;;;;;;2.23;90.01;102320.22;5088061;28;20020;-88
2022/01/16 08:54:09;;;;;;;48.23;22.40;;;;;;;2.26;90.13;102335.72;5088147;28;20433;-87
2022/01/16 08:56:34;;;;;;;51.20;24.57;;;;;;;2.30;90.08;102333.25;5082386;28;20040;-87
2022/01/16 08:58:59;;;;;;;50.93;23.17;;;;;;;2.33;89.82;102333.38;5087912;28;20024;-87
2022/01/16 09:01:25;;;;;;;55.37;24.00;;;;;;;2.33;89.95;102336.78;5090381;28;20039;-87
2022/01/16 09:03:50;;;;;;;60.63;23.37;;;;;;;2.35;90.32;102342.00;5086500;28;20054;-87
2022/01/16 09:06:16;;;;;;;48.67;22.33;;;;;;;2.38;90.26;102334.41;5091025;28;20107;-87
2022/01/16 09:08:42;;;;;;;55.93;23.27;;;;;;;2.40;90.03;102345.56;5083318;28;20023;-87
2022/01/16 09:11:07;;;;;;;47.90;23.07;;;;;;;2.43;89.89;102345.66;5091948;28;20023;-87
2022/01/16 09:13:33;;;;;;;55.53;24.43;;;;;;;2.46;90.15;102343.22;5086864;28;20028;-87
2022/01/16 09:16:00;;;;;;;71.50;24.27;;;;;;;2.47;89.89;102346.66;5089231;28;20149;-87
2022/01/16 09:18:26;;;;;;;54.27;24.00;;;;;;;2.49;89.72;102348.44;5091549;28;20506;-87
2022/01/16 09:20:53;;;;;;;56.13;24.00;;;;;;;2.52;90.04;102355.38;5082904;28;20111;-87
2022/01/16 09:23:19;;;;;;;55.67;23.37;;;;;;;2.52;89.75;102352.81;5083323;28;20023;-87
2022/01/16 09:27:49;;;;;;;57.33;23.40;;;;;;;2.59;89.82;102359.91;5150467;27;20420;-85
2022/01/16 09:30:15;;;;;;;63.13;23.93;;;;;;;2.63;89.74;102366.00;5150231;27;20041;-85
2022/01/16 09:32:40;;;;;;;56.63;24.33;;;;;;;2.63;89.64;102353.16;5145128;27;20229;-85
2022/01/16 09:35:08;;;;;;;57.63;24.37;;;;;;;2.67;90.19;102367.84;5125269;27;20474;-85
2022/01/16 09:37:34;;;;;;;57.33;22.83;;;;;;;2.72;89.78;102384.28;5142815;27;20023;-84
2022/01/16 09:40:00;;;;;;;62.97;24.37;;;;;;;2.73;89.92;102378.34;5132881;27;20027;-85
2022/01/16 09:42:25;;;;;;;59.77;24.77;;;;;;;2.75;89.66;102374.09;5139648;27;20018;-84
2022/01/16 09:44:51;;;;;;;58.77;23.87;;;;;;;2.77;89.38;102384.44;5113791;27;20090;-85
2022/01/16 09:47:17;;;;;;;59.47;24.20;;;;;;;2.78;89.83;102381.03;5111352;27;20043;-86
2022/01/16 09:49:44;;;;;;;58.83;24.83;;;;;;;2.81;89.74;102384.56;5118253;27;20493;-86
2022/01/16 09:52:09;;;;;;;61.43;24.93;;;;;;;2.83;89.82;102388.06;5140612;27;20501;-86
2022/01/16 09:54:38;;;;;;;64.37;26.63;;;;;;;2.88;89.58;102383.06;5128332;27;20023;-86
2022/01/16 09:57:05;;;;;;;63.53;25.17;;;;;;;2.92;89.83;102395.19;5112584;27;20034;-85
2022/01/16 09:59:30;;;;;;;66.73;25.67;;;;;;;2.93;89.55;102396.03;5130028;27;20022;-85
2022/01/16 10:01:56;;;;;;;65.77;26.60;;;;;;;2.95;89.67;102404.69;5133271;27;20023;-86
2022/01/16 10:04:31;;;;;;;63.70;26.53;;;;;;;2.98;89.65;102408.25;5129365;27;20032;-86
2022/01/16 10:06:59;;;;;;;64.83;26.40;;;;;;;3.03;89.39;102410.94;5132481;27;20080;-84
2022/01/16 10:09:25;;;;;;;69.27;27.00;;;;;;;3.06;89.27;102412.72;5109027;27;20482;-85
2022/01/16 10:11:59;;;;;;;82.97;28.57;;;;;;;3.07;89.63;102410.22;5117973;27;20520;-87
2022/01/16 10:14:36;;;;;;;68.13;27.17;;;;;;;3.09;89.35;102413.69;5119083;27;20079;-86
2022/01/16 10:17:13;;;;;;;80.00;28.10;;;;;;;3.12;89.41;102418.06;5141811;27;20406;-86
2022/01/16 10:19:38;;;;;;;71.77;27.80;;;;;;;3.11;89.76;102422.34;5126610;27;20114;-86
2022/01/16 10:22:14;;;;;;;76.73;28.60;;;;;;;3.13;89.82;102427.53;5128225;27;20062;-86
2022/01/16 10:24:40;;;;;;;79.73;28.83;;;;;;;3.15;89.81;102429.31;5131315;27;20035;-86
2022/01/16 10:27:08;;;;;;;74.27;28.57;;;;;;;3.19;89.68;102427.69;5130088;27;20051;-87
2022/01/16 10:29:40;;;;;;;81.70;27.53;;;;;;;3.21;89.27;102427.78;5108735;27;20068;-86
2022/01/16 10:32:26;;;;;;;76.28;27.70;;;;;;;3.25;89.66;102421.88;5127276;27;20154;-87
2022/01/16 10:35:14;;;;;;;74.63;28.10;;;;;;;3.28;89.74;102432.25;5135173;27;20034;-86
2022/01/16 10:37:45;;;;;;;79.30;29.20;;;;;;;3.31;89.53;102433.25;5146072;27;20033;-87
2022/01/16 10:40:31;;;;;;;77.85;27.42;;;;;;;3.35;89.39;102431.63;5115493;27;20061;-86
2022/01/16 10:42:58;;;;;;;88.23;28.97;;;;;;;3.40;89.45;102429.19;5115793;27;20031;-86
2022/01/16 10:45:28;;;;;;;75.97;26.73;;;;;;;3.44;89.23;102434.47;5119133;27;20027;-86
2022/01/16 10:47:57;;;;;;;78.60;27.63;;;;;;;3.46;88.96;102440.53;5116306;27;20049;-87
2022/01/16 10:50:40;;;;;;;80.13;27.83;;;;;;;3.49;89.03;102429.47;5113907;27;20031;-86
2022/01/16 10:53:11;;;;;;;82.17;27.77;;;;;;;3.55;89.33;102439.06;5113340;27;20045;-86
2022/01/16 10:55:41;;;;;;;91.45;28.30;;;;;;;3.63;89.26;102437.56;5117336;27;20031;-86
2022/01/16 10:58:13;;;;;;;79.50;26.93;;;;;;;3.71;89.20;102430.06;5114069;28;20031;-86
2022/01/16 11:00:41;;;;;;;77.97;26.27;;;;;;;3.80;88.49;102430.34;5117764;27;20039;-87
2022/01/16 11:03:10;;;;;;;75.77;27.17;;;;;;;3.86;88.01;102434.78;5115634;27;20024;-86
2022/01/16 11:05:38;;;;;;;85.03;26.57;;;;;;;3.86;88.29;102442.50;5113691;27;20039;-85
2022/01/16 11:08:07;;;;;;;75.30;26.43;;;;;;;3.85;87.85;102433.91;5115171;27;20020;-86
2022/01/16 11:10:35;;;;;;;74.57;25.03;;;;;;;3.82;87.79;102432.94;5114916;27;20046;-86
2022/01/16 11:13:05;;;;;;;74.60;26.13;;;;;;;3.83;87.73;102442.41;5121569;27;20031;-86
2022/01/16 11:15:33;;;;;;;74.77;25.97;;;;;;;3.84;87.87;102441.59;5124311;27;20032;-85
2022/01/16 11:18:00;;;;;;;79.87;26.47;;;;;;;3.80;87.74;102444.06;5117894;27;20032;-85
2022/01/16 11:20:38;;;;;;;74.90;26.63;;;;;;;3.80;87.97;102431.22;5096565;28;20027;-86
2022/01/16 11:25:39;;;;;;;78.20;25.63;;;;;;;3.86;87.57;102439.94;5111738;27;20035;-86
2022/01/16 11:28:16;;;;;;;66.57;25.27;;;;;;;3.86;87.98;102434.78;5110485;27;20062;-86
2022/01/16 11:30:47;;;;;;;68.30;24.53;;;;;;;3.86;88.18;102435.66;5111102;27;20028;-86
2022/01/16 11:33:14;;;;;;;65.03;22.42;;;;;;;3.88;87.73;102439.13;5112393;27;20493;-86
2022/01/16 11:35:50;;;;;;;62.03;23.60;;;;;;;3.91;87.74;102439.22;5109885;27;20023;-87
2022/01/16 11:38:19;;;;;;;68.17;24.13;;;;;;;3.89;88.10;102440.88;5111026;27;20031;-87
2022/01/16 11:40:46;;;;;;;67.27;23.50;;;;;;;3.90;87.77;102444.34;5114394;27;20035;-87
2022/01/16 11:43:20;;;;;;;70.63;22.93;;;;;;;3.93;87.94;102437.56;5094881;27;20019;-88
2022/01/16 11:45:52;;;;;;;61.57;22.43;;;;;;;3.97;87.93;102435.09;5111299;28;20039;-88
2022/01/16 11:48:50;;;;;;;62.55;22.63;;;;;;;4.03;87.89;102442.97;5112700;28;20062;-88
2022/01/16 11:51:39;;;;;;;64.47;23.37;;;;;;;4.02;88.30;102436.06;5094448;28;20160;-88
2022/01/16 11:54:08;;;;;;;59.17;20.37;;;;;;;4.04;87.75;102440.44;5113437;27;20046;-87
2022/01/16 11:59:24;;;;;;;62.42;23.45;;;;;;;4.06;88.11;102435.31;5112854;28;20031;-87
2022/01/16 12:01:53;;;;;;;60.83;22.80;;;;;;;4.04;87.50;102432.72;5112914;28;20031;-87
2022/01/16 12:04:28;;;;;;;59.27;23.10;;;;;;;4.03;88.16;102428.41;5127323;27;20638;-87
2022/01/16 12:06:53;;;;;;;60.95;22.13;;;;;;;4.08;87.56;102431.97;5112825;28;20031;-88